Bristol, Indiana
Current Conditions -  °F | °C
As of 6:53 PM on Monday 20 Oct 2014 (Local Time) from KGSH Reporting Station
Overcast Overcast  
Wind Chill: 55°   Ceiling: 2200
Heat Index: 55°   Visibility: 10mi
Dew Point: 48°   Wind: 14mph
Humidity: 77%   Direction: 310°NW
Pressure: 29.88"   Gusts: NA
Location:  41.72°N, 85.82°W
Report Text: KGSH 202253Z AUTO 31012KT 10SM OVC022 13/09 A2988 RMK AO2 SLP120 T01280089 $
Loading
Personal Weather Stations






























Interactive Weather Map
Tropical Storm Tracking
New forecast layout! Learn more

10-Day Weather Forecast

Advertisements
Track Severe Weather on mobile